sensor_id;sensor_type;location;lat;lon;timestamp;pressure;altitude;pressure_sealevel;temperature;humidity
60583;BME280;46415;47.536;19.066;2022-07-22T00:01:55;100487.16;;;24.27;51.06
60583;BME280;46415;47.536;19.066;2022-07-22T00:04:58;100482.16;;;24.24;50.22
60583;BME280;46415;47.536;19.066;2022-07-22T00:08:01;100484.69;;;24.16;50.76
60583;BME280;46415;47.536;19.066;2022-07-22T00:11:04;100484.47;;;24.09;49.81
60583;BME280;46415;47.536;19.066;2022-07-22T00:14:06;100485.22;;;24.01;50.33
60583;BME280;46415;47.536;19.066;2022-07-22T00:17:09;100482.88;;;23.98;49.01
60583;BME280;46415;47.536;19.066;2022-07-22T00:20:12;100473.84;;;23.91;49.65
60583;BME280;46415;47.536;19.066;2022-07-22T00:23:15;100484.78;;;23.88;49.21
60583;BME280;46415;47.536;19.066;2022-07-22T00:26:18;100485.19;;;23.84;48.67
60583;BME280;46415;47.536;19.066;2022-07-22T00:29:20;100480.66;;;23.76;48.78
60583;BME280;46415;47.536;19.066;2022-07-22T00:32:23;100489.59;;;23.75;47.80
60583;BME280;46415;47.536;19.066;2022-07-22T00:35:26;100481.63;;;23.75;47.88
60583;BME280;46415;47.536;19.066;2022-07-22T00:38:29;100481.91;;;23.72;48.24
60583;BME280;46415;47.536;19.066;2022-07-22T00:41:32;100481.84;;;23.64;48.98
60583;BME280;46415;47.536;19.066;2022-07-22T00:44:39;100487.44;;;23.61;49.12
60583;BME280;46415;47.536;19.066;2022-07-22T00:47:42;100488.56;;;23.58;48.75
60583;BME280;46415;47.536;19.066;2022-07-22T00:50:45;100484.25;;;23.57;48.80
60583;BME280;46415;47.536;19.066;2022-07-22T00:53:48;100484.25;;;23.57;49.65
60583;BME280;46415;47.536;19.066;2022-07-22T00:56:51;100490.38;;;23.58;50.09
60583;BME280;46415;47.536;19.066;2022-07-22T00:59:55;100489.00;;;23.54;52.18
60583;BME280;46415;47.536;19.066;2022-07-22T01:02:58;100492.94;;;23.50;53.77
60583;BME280;46415;47.536;19.066;2022-07-22T01:06:01;100499.75;;;23.52;49.25
60583;BME280;46415;47.536;19.066;2022-07-22T01:09:04;100502.13;;;23.46;48.91
60583;BME280;46415;47.536;19.066;2022-07-22T01:12:07;100500.19;;;23.38;48.66
60583;BME280;46415;47.536;19.066;2022-07-22T01:15:10;100499.19;;;23.58;46.25
60583;BME280;46415;47.536;19.066;2022-07-22T01:18:13;100510.22;;;23.44;47.04
60583;BME280;46415;47.536;19.066;2022-07-22T01:21:16;100497.03;;;23.25;46.99
60583;BME280;46415;47.536;19.066;2022-07-22T01:26:59;100495.28;;;23.43;47.55
60583;BME280;46415;47.536;19.066;2022-07-22T01:30:05;100495.28;;;23.43;47.55
60583;BME280;46415;47.536;19.066;2022-07-22T01:33:08;100503.69;;;22.92;47.84
60583;BME280;46415;47.536;19.066;2022-07-22T01:36:11;100504.94;;;22.88;48.17
60583;BME280;46415;47.536;19.066;2022-07-22T01:39:14;100492.28;;;22.82;48.71
60583;BME280;46415;47.536;19.066;2022-07-22T01:42:18;100504.28;;;22.76;49.04
60583;BME280;46415;47.536;19.066;2022-07-22T01:45:21;100490.59;;;22.71;49.52
60583;BME280;46415;47.536;19.066;2022-07-22T01:48:24;100492.00;;;22.66;49.66
60583;BME280;46415;47.536;19.066;2022-07-22T01:51:27;100490.88;;;22.59;50.67
60583;BME280;46415;47.536;19.066;2022-07-22T01:54:30;100492.88;;;22.57;50.34
60583;BME280;46415;47.536;19.066;2022-07-22T01:57:33;100495.66;;;22.55;50.51
60583;BME280;46415;47.536;19.066;2022-07-22T02:00:37;100499.56;;;22.51;51.05
60583;BME280;46415;47.536;19.066;2022-07-22T02:03:40;100494.09;;;22.53;50.34
60583;BME280;46415;47.536;19.066;2022-07-22T02:06:42;100492.59;;;22.50;49.09
60583;BME280;46415;47.536;19.066;2022-07-22T02:09:46;100488.41;;;22.48;49.81
60583;BME280;46415;47.536;19.066;2022-07-22T02:12:49;100488.53;;;22.56;50.10
60583;BME280;46415;47.536;19.066;2022-07-22T02:15:52;100496.47;;;22.85;47.90
60583;BME280;46415;47.536;19.066;2022-07-22T02:18:55;100494.34;;;22.98;47.85
60583;BME280;46415;47.536;19.066;2022-07-22T02:21:59;100505.06;;;22.96;48.44
60583;BME280;46415;47.536;19.066;2022-07-22T02:25:02;100514.91;;;23.13;47.76
60583;BME280;46415;47.536;19.066;2022-07-22T02:28:05;100517.75;;;23.02;48.55
60583;BME280;46415;47.536;19.066;2022-07-22T02:31:09;100530.00;;;23.03;50.04
60583;BME280;46415;47.536;19.066;2022-07-22T02:34:13;100534.31;;;22.95;50.78
60583;BME280;46415;47.536;19.066;2022-07-22T02:37:16;100530.03;;;22.84;51.04
60583;BME280;46415;47.536;19.066;2022-07-22T02:40:19;100522.78;;;22.76;50.93
60583;BME280;46415;47.536;19.066;2022-07-22T02:43:22;100527.66;;;22.71;50.83
60583;BME280;46415;47.536;19.066;2022-07-22T02:46:26;100530.56;;;22.59;50.95
60583;BME280;46415;47.536;19.066;2022-07-22T02:49:32;100536.31;;;22.45;51.57
60583;BME280;46415;47.536;19.066;2022-07-22T02:52:35;100534.78;;;22.32;51.80
60583;BME280;46415;47.536;19.066;2022-07-22T02:55:37;100524.75;;;22.26;51.83
60583;BME280;46415;47.536;19.066;2022-07-22T02:58:40;100523.62;;;22.19;51.64
60583;BME280;46415;47.536;19.066;2022-07-22T03:01:44;100524.28;;;22.12;52.47
60583;BME280;46415;47.536;19.066;2022-07-22T03:04:47;100522.50;;;22.03;52.74
60583;BME280;46415;47.536;19.066;2022-07-22T03:07:50;100531.09;;;21.95;51.45
60583;BME280;46415;47.536;19.066;2022-07-22T03:10:52;100531.34;;;21.92;50.76
60583;BME280;46415;47.536;19.066;2022-07-22T03:13:56;100532.84;;;21.85;51.51
60583;BME280;46415;47.536;19.066;2022-07-22T03:16:59;100532.13;;;21.83;52.42
60583;BME280;46415;47.536;19.066;2022-07-22T03:20:07;100531.44;;;21.81;52.25
60583;BME280;46415;47.536;19.066;2022-07-22T03:23:10;100540.06;;;21.83;51.96
60583;BME280;46415;47.536;19.066;2022-07-22T03:26:13;100541.47;;;21.87;52.64
60583;BME280;46415;47.536;19.066;2022-07-22T03:29:15;100547.19;;;21.92;52.70
60583;BME280;46415;47.536;19.066;2022-07-22T03:32:18;100551.97;;;21.98;53.15
60583;BME280;46415;47.536;19.066;2022-07-22T03:35:21;100549.34;;;21.98;54.37
60583;BME280;46415;47.536;19.066;2022-07-22T03:38:24;100548.84;;;21.93;54.61
60583;BME280;46415;47.536;19.066;2022-07-22T03:41:27;100548.84;;;21.93;54.68
60583;BME280;46415;47.536;19.066;2022-07-22T03:44:30;100561.25;;;21.92;55.32
60583;BME280;46415;47.536;19.066;2022-07-22T03:47:32;100558.34;;;21.95;55.40
60583;BME280;46415;47.536;19.066;2022-07-22T03:50:36;100554.47;;;21.99;55.40
60583;BME280;46415;47.536;19.066;2022-07-22T03:53:40;100547.53;;;22.08;53.83
60583;BME280;46415;47.536;19.066;2022-07-22T03:56:43;100544.34;;;22.14;54.41
60583;BME280;46415;47.536;19.066;2022-07-22T03:59:45;100547.69;;;22.16;53.75
60583;BME280;46415;47.536;19.066;2022-07-22T04:02:49;100547.16;;;22.22;54.03
60583;BME280;46415;47.536;19.066;2022-07-22T04:05:52;100545.47;;;22.31;54.00
60583;BME280;46415;47.536;19.066;2022-07-22T04:08:56;100552.31;;;22.43;54.65
60583;BME280;46415;47.536;19.066;2022-07-22T04:12:01;100557.47;;;22.54;53.54
60583;BME280;46415;47.536;19.066;2022-07-22T04:15:06;100550.62;;;22.61;53.66
60583;BME280;46415;47.536;19.066;2022-07-22T04:18:09;100542.16;;;22.77;52.41
60583;BME280;46415;47.536;19.066;2022-07-22T04:21:12;100548.28;;;22.87;53.56
60583;BME280;46415;47.536;19.066;2022-07-22T04:24:17;100542.44;;;22.93;53.60
60583;BME280;46415;47.536;19.066;2022-07-22T04:27:20;100553.69;;;23.05;54.21
60583;BME280;46415;47.536;19.066;2022-07-22T04:30:23;100550.44;;;23.20;53.79
60583;BME280;46415;47.536;19.066;2022-07-22T04:33:25;100556.28;;;23.34;50.77
60583;BME280;46415;47.536;19.066;2022-07-22T04:36:28;100552.34;;;23.38;48.76
60583;BME280;46415;47.536;19.066;2022-07-22T04:39:31;100537.97;;;23.40;49.00
60583;BME280;46415;47.536;19.066;2022-07-22T04:42:34;100538.81;;;23.50;49.27
60583;BME280;46415;47.536;19.066;2022-07-22T04:45:36;100538.47;;;23.63;48.92
60583;BME280;46415;47.536;19.066;2022-07-22T04:48:39;100549.56;;;23.76;47.26
60583;BME280;46415;47.536;19.066;2022-07-22T04:51:42;100551.06;;;23.88;46.26
60583;BME280;46415;47.536;19.066;2022-07-22T04:54:45;100540.62;;;24.05;45.67
60583;BME280;46415;47.536;19.066;2022-07-22T04:57:48;100552.13;;;24.13;45.33
60583;BME280;46415;47.536;19.066;2022-07-22T05:00:51;100546.72;;;24.32;44.83
60583;BME280;46415;47.536;19.066;2022-07-22T05:03:53;100550.44;;;24.39;45.59
60583;BME280;46415;47.536;19.066;2022-07-22T05:06:57;100551.06;;;24.51;45.42
60583;BME280;46415;47.536;19.066;2022-07-22T05:09:59;100548.50;;;24.59;46.74
60583;BME280;46415;47.536;19.066;2022-07-22T05:13:04;100547.88;;;24.65;45.75
60583;BME280;46415;47.536;19.066;2022-07-22T05:16:09;100548.00;;;24.81;45.11
60583;BME280;46415;47.536;19.066;2022-07-22T05:19:13;100551.34;;;25.01;44.32
60583;BME280;46415;47.536;19.066;2022-07-22T05:22:16;100556.13;;;25.24;43.99
60583;BME280;46415;47.536;19.066;2022-07-22T05:25:19;100548.56;;;25.37;43.29
60583;BME280;46415;47.536;19.066;2022-07-22T05:28:23;100558.44;;;25.52;44.41
60583;BME280;46415;47.536;19.066;2022-07-22T05:31:26;100556.63;;;25.79;43.82
60583;BME280;46415;47.536;19.066;2022-07-22T05:34:29;100566.31;;;26.04;42.72
60583;BME280;46415;47.536;19.066;2022-07-22T05:37:32;100553.09;;;26.28;40.87
60583;BME280;46415;47.536;19.066;2022-07-22T05:40:35;100560.31;;;26.68;39.33
60583;BME280;46415;47.536;19.066;2022-07-22T05:43:39;100558.16;;;26.96;38.89
60583;BME280;46415;47.536;19.066;2022-07-22T05:46:43;100559.50;;;27.16;38.18
60583;BME280;46415;47.536;19.066;2022-07-22T05:49:46;100559.25;;;27.42;37.80
60583;BME280;46415;47.536;19.066;2022-07-22T05:52:48;100565.50;;;27.74;37.13
60583;BME280;46415;47.536;19.066;2022-07-22T05:55:51;100568.06;;;27.98;37.08
60583;BME280;46415;47.536;19.066;2022-07-22T05:58:54;100563.03;;;28.03;36.42
60583;BME280;46415;47.536;19.066;2022-07-22T06:01:59;100570.13;;;27.88;35.70
60583;BME280;46415;47.536;19.066;2022-07-22T06:05:04;100566.94;;;27.84;35.63
60583;BME280;46415;47.536;19.066;2022-07-22T06:08:06;100571.19;;;28.01;35.20
60583;BME280;46415;47.536;19.066;2022-07-22T06:11:10;100568.84;;;28.07;35.83
60583;BME280;46415;47.536;19.066;2022-07-22T06:14:13;100575.41;;;27.96;34.40
60583;BME280;46415;47.536;19.066;2022-07-22T06:17:22;100562.94;;;27.88;33.80
60583;BME280;46415;47.536;19.066;2022-07-22T06:20:25;100562.41;;;27.93;33.69
60583;BME280;46415;47.536;19.066;2022-07-22T06:23:28;100571.56;;;27.98;34.19
60583;BME280;46415;47.536;19.066;2022-07-22T06:26:31;100565.03;;;28.01;32.37
60583;BME280;46415;47.536;19.066;2022-07-22T06:29:34;100571.59;;;27.90;33.03
60583;BME280;46415;47.536;19.066;2022-07-22T06:32:37;100568.13;;;28.13;32.73
60583;BME280;46415;47.536;19.066;2022-07-22T06:35:47;100571.38;;;28.31;32.53
60583;BME280;46415;47.536;19.066;2022-07-22T06:38:50;100569.81;;;28.45;32.72
60583;BME280;46415;47.536;19.066;2022-07-22T06:41:55;100571.44;;;28.54;34.22
60583;BME280;46415;47.536;19.066;2022-07-22T06:45:01;100565.84;;;28.40;34.93
60583;BME280;46415;47.536;19.066;2022-07-22T06:48:12;100565.66;;;28.65;34.00
60583;BME280;46415;47.536;19.066;2022-07-22T06:51:15;100569.63;;;28.92;32.46
60583;BME280;46415;47.536;19.066;2022-07-22T06:54:18;100573.06;;;29.15;33.52
60583;BME280;46415;47.536;19.066;2022-07-22T06:57:21;100566.69;;;29.53;33.08
60583;BME280;46415;47.536;19.066;2022-07-22T07:00:24;100565.66;;;29.84;30.35
60583;BME280;46415;47.536;19.066;2022-07-22T07:03:29;100569.63;;;30.02;29.14
60583;BME280;46415;47.536;19.066;2022-07-22T07:06:38;100568.13;;;29.85;28.97
60583;BME280;46415;47.536;19.066;2022-07-22T07:09:41;100562.22;;;29.90;29.58
60583;BME280;46415;47.536;19.066;2022-07-22T07:12:45;100559.75;;;30.03;30.54
60583;BME280;46415;47.536;19.066;2022-07-22T07:15:48;100562.09;;;30.13;29.05
60583;BME280;46415;47.536;19.066;2022-07-22T07:18:51;100562.94;;;30.13;25.47
60583;BME280;46415;47.536;19.066;2022-07-22T07:21:54;100559.66;;;30.32;24.89
60583;BME280;46415;47.536;19.066;2022-07-22T07:24:57;100571.25;;;30.39;25.65
60583;BME280;46415;47.536;19.066;2022-07-22T07:28:04;100564.53;;;30.29;26.22
60583;BME280;46415;47.536;19.066;2022-07-22T07:31:09;100557.41;;;30.36;24.72
60583;BME280;46415;47.536;19.066;2022-07-22T07:34:12;100555.47;;;30.66;24.93
60583;BME280;46415;47.536;19.066;2022-07-22T07:37:15;100551.78;;;31.22;24.59
60583;BME280;46415;47.536;19.066;2022-07-22T07:40:18;100558.19;;;31.56;23.51
60583;BME280;46415;47.536;19.066;2022-07-22T07:43:21;100552.13;;;31.75;23.67
60583;BME280;46415;47.536;19.066;2022-07-22T07:46:25;100544.22;;;32.15;23.11
60583;BME280;46415;47.536;19.066;2022-07-22T07:49:28;100546.13;;;32.40;21.90
60583;BME280;46415;47.536;19.066;2022-07-22T07:52:30;100548.25;;;32.78;21.66
60583;BME280;46415;47.536;19.066;2022-07-22T07:55:34;100546.16;;;33.13;21.78
60583;BME280;46415;47.536;19.066;2022-07-22T07:58:40;100551.12;;;33.03;22.18
60583;BME280;46415;47.536;19.066;2022-07-22T08:02:04;100551.94;;;33.10;21.63
60583;BME280;46415;47.536;19.066;2022-07-22T08:05:08;100544.06;;;33.41;21.54
60583;BME280;46415;47.536;19.066;2022-07-22T08:08:12;100546.50;;;33.49;21.33
60583;BME280;46415;47.536;19.066;2022-07-22T08:11:17;100539.94;;;33.19;21.71
60583;BME280;46415;47.536;19.066;2022-07-22T08:14:21;100540.34;;;33.09;21.42
60583;BME280;46415;47.536;19.066;2022-07-22T08:17:25;100540.59;;;32.68;21.70
60583;BME280;46415;47.536;19.066;2022-07-22T08:20:28;100534.94;;;32.30;22.55
60583;BME280;46415;47.536;19.066;2022-07-22T08:23:32;100539.44;;;32.10;23.20
60583;BME280;46415;47.536;19.066;2022-07-22T08:26:35;100542.16;;;32.17;22.67
60583;BME280;46415;47.536;19.066;2022-07-22T08:29:38;100535.84;;;32.70;21.50
60583;BME280;46415;47.536;19.066;2022-07-22T08:32:41;100535.81;;;33.10;21.08
60583;BME280;46415;47.536;19.066;2022-07-22T08:35:43;100532.50;;;33.21;20.37
60583;BME280;46415;47.536;19.066;2022-07-22T08:38:46;100531.69;;;33.20;20.29
60583;BME280;46415;47.536;19.066;2022-07-22T08:41:49;100528.78;;;33.22;20.67
60583;BME280;46415;47.536;19.066;2022-07-22T08:44:54;100535.97;;;33.41;20.83
60583;BME280;46415;47.536;19.066;2022-07-22T08:48:04;100525.88;;;33.24;20.77
60583;BME280;46415;47.536;19.066;2022-07-22T08:51:09;100528.56;;;33.04;21.01
60583;BME280;46415;47.536;19.066;2022-07-22T08:54:13;100525.47;;;33.20;20.84
60583;BME280;46415;47.536;19.066;2022-07-22T08:57:17;100538.66;;;33.48;21.10
60583;BME280;46415;47.536;19.066;2022-07-22T09:00:21;100537.88;;;33.28;20.00
60583;BME280;46415;47.536;19.066;2022-07-22T09:03:25;100529.28;;;33.57;19.79
60583;BME280;46415;47.536;19.066;2022-07-22T09:06:31;100532.81;;;33.71;19.72
60583;BME280;46415;47.536;19.066;2022-07-22T09:09:37;100531.31;;;33.68;19.35
60583;BME280;46415;47.536;19.066;2022-07-22T09:12:58;100530.50;;;33.61;19.98
60583;BME280;46415;47.536;19.066;2022-07-22T09:16:03;100521.81;;;33.72;19.76
60583;BME280;46415;47.536;19.066;2022-07-22T09:19:11;100522.50;;;33.54;19.81
60583;BME280;46415;47.536;19.066;2022-07-22T09:25:37;100521.03;;;33.96;19.62
60583;BME280;46415;47.536;19.066;2022-07-22T09:28:53;100514.75;;;34.09;19.62
60583;BME280;46415;47.536;19.066;2022-07-22T09:32:00;100511.47;;;34.38;19.90
60583;BME280;46415;47.536;19.066;2022-07-22T09:35:06;100515.25;;;34.37;19.16
60583;BME280;46415;47.536;19.066;2022-07-22T09:38:11;100507.59;;;34.34;19.20
60583;BME280;46415;47.536;19.066;2022-07-22T09:41:14;100507.25;;;34.24;19.74
60583;BME280;46415;47.536;19.066;2022-07-22T09:44:22;100515.37;;;34.49;20.06
60583;BME280;46415;47.536;19.066;2022-07-22T09:47:29;100506.72;;;34.40;19.71
60583;BME280;46415;47.536;19.066;2022-07-22T09:50:41;100504.94;;;34.53;19.69
60583;BME280;46415;47.536;19.066;2022-07-22T09:53:45;100503.41;;;34.88;20.17
60583;BME280;46415;47.536;19.066;2022-07-22T09:56:49;100502.34;;;35.14;19.56
60583;BME280;46415;47.536;19.066;2022-07-22T09:59:52;100498.34;;;34.49;20.00
60583;BME280;46415;47.536;19.066;2022-07-22T10:02:58;100488.13;;;34.82;19.62
60583;BME280;46415;47.536;19.066;2022-07-22T10:06:04;100491.31;;;34.97;19.58
60583;BME280;46415;47.536;19.066;2022-07-22T10:09:08;100488.84;;;35.14;20.04
60583;BME280;46415;47.536;19.066;2022-07-22T10:12:17;100488.31;;;35.42;19.77
60583;BME280;46415;47.536;19.066;2022-07-22T10:15:21;100482.62;;;35.68;19.45
60583;BME280;46415;47.536;19.066;2022-07-22T10:18:25;100481.19;;;35.95;19.11
60583;BME280;46415;47.536;19.066;2022-07-22T10:21:32;100477.37;;;36.15;19.20
60583;BME280;46415;47.536;19.066;2022-07-22T10:24:59;100469.97;;;36.10;18.87
60583;BME280;46415;47.536;19.066;2022-07-22T10:28:04;100473.75;;;35.61;19.03
60583;BME280;46415;47.536;19.066;2022-07-22T10:31:23;100471.19;;;35.84;19.42
60583;BME280;46415;47.536;19.066;2022-07-22T10:34:26;100469.22;;;35.91;19.19
60583;BME280;46415;47.536;19.066;2022-07-22T10:43:48;100464.53;;;36.40;18.61
60583;BME280;46415;47.536;19.066;2022-07-22T10:46:54;100457.59;;;36.44;19.27
60583;BME280;46415;47.536;19.066;2022-07-22T10:53:41;100455.41;;;36.76;18.93
60583;BME280;46415;47.536;19.066;2022-07-22T10:56:45;100454.44;;;36.94;18.84
60583;BME280;46415;47.536;19.066;2022-07-22T10:59:55;100446.56;;;36.92;18.94
60583;BME280;46415;47.536;19.066;2022-07-22T11:02:58;100442.53;;;36.95;19.35
60583;BME280;46415;47.536;19.066;2022-07-22T11:06:22;100445.47;;;37.05;19.45
60583;BME280;46415;47.536;19.066;2022-07-22T11:09:34;100437.69;;;37.20;19.60
60583;BME280;46415;47.536;19.066;2022-07-22T11:12:38;100436.13;;;37.36;19.46
60583;BME280;46415;47.536;19.066;2022-07-22T11:15:41;100433.28;;;37.71;19.09
60583;BME280;46415;47.536;19.066;2022-07-22T11:18:52;100430.37;;;37.89;18.86
60583;BME280;46415;47.536;19.066;2022-07-22T11:22:00;100428.38;;;37.84;18.74
60583;BME280;46415;47.536;19.066;2022-07-22T11:25:10;100422.56;;;37.92;19.24
60583;BME280;46415;47.536;19.066;2022-07-22T11:28:13;100422.47;;;37.71;19.23
60583;BME280;46415;47.536;19.066;2022-07-22T11:31:18;100421.56;;;37.82;19.17
60583;BME280;46415;47.536;19.066;2022-07-22T11:34:21;100413.44;;;37.98;19.23
60583;BME280;46415;47.536;19.066;2022-07-22T11:37:26;100414.97;;;38.23;19.08
60583;BME280;46415;47.536;19.066;2022-07-22T11:40:33;100402.13;;;38.52;18.84
60583;BME280;46415;47.536;19.066;2022-07-22T11:43:47;100398.66;;;38.73;18.76
60583;BME280;46415;47.536;19.066;2022-07-22T11:46:51;100402.47;;;38.94;18.75
60583;BME280;46415;47.536;19.066;2022-07-22T11:49:54;100387.41;;;38.86;18.67
60583;BME280;46415;47.536;19.066;2022-07-22T11:52:57;100391.25;;;38.68;18.82
60583;BME280;46415;47.536;19.066;2022-07-22T11:56:05;100390.78;;;38.38;19.29
60583;BME280;46415;47.536;19.066;2022-07-22T11:59:14;100382.47;;;38.45;19.21
60583;BME280;46415;47.536;19.066;2022-07-22T12:02:17;100371.00;;;38.76;18.87
60583;BME280;46415;47.536;19.066;2022-07-22T12:05:23;100371.75;;;38.71;19.26
60583;BME280;46415;47.536;19.066;2022-07-22T12:08:38;100374.12;;;38.68;19.09
60583;BME280;46415;47.536;19.066;2022-07-22T12:11:44;100362.84;;;38.37;19.83
60583;BME280;46415;47.536;19.066;2022-07-22T12:14:47;100362.84;;;38.54;19.85
60583;BME280;46415;47.536;19.066;2022-07-22T12:17:50;100363.28;;;38.68;19.55
60583;BME280;46415;47.536;19.066;2022-07-22T12:20:55;100350.81;;;38.89;19.67
60583;BME280;46415;47.536;19.066;2022-07-22T12:24:02;100350.72;;;38.23;19.80
60583;BME280;46415;47.536;19.066;2022-07-22T12:27:07;100345.75;;;38.54;20.06
60583;BME280;46415;47.536;19.066;2022-07-22T12:30:12;100345.44;;;38.72;19.33
60583;BME280;46415;47.536;19.066;2022-07-22T12:33:16;100337.56;;;38.92;19.24
60583;BME280;46415;47.536;19.066;2022-07-22T12:36:19;100330.72;;;39.11;19.38
60583;BME280;46415;47.536;19.066;2022-07-22T12:39:22;100327.09;;;39.01;19.07
60583;BME280;46415;47.536;19.066;2022-07-22T12:42:28;100319.81;;;39.06;19.17
60583;BME280;46415;47.536;19.066;2022-07-22T12:45:33;100322.22;;;38.81;18.94
60583;BME280;46415;47.536;19.066;2022-07-22T12:48:36;100316.59;;;38.88;19.32
60583;BME280;46415;47.536;19.066;2022-07-22T12:51:39;100312.31;;;39.13;19.32
60583;BME280;46415;47.536;19.066;2022-07-22T12:54:42;100307.78;;;39.24;19.20
60583;BME280;46415;47.536;19.066;2022-07-22T12:57:44;100310.12;;;39.37;19.18
60583;BME280;46415;47.536;19.066;2022-07-22T13:00:52;100311.94;;;39.32;19.55
60583;BME280;46415;47.536;19.066;2022-07-22T13:03:55;100301.22;;;39.47;18.68
60583;BME280;46415;47.536;19.066;2022-07-22T13:06:59;100294.13;;;39.41;18.90
60583;BME280;46415;47.536;19.066;2022-07-22T13:10:02;100291.75;;;39.49;19.23
60583;BME280;46415;47.536;19.066;2022-07-22T13:13:05;100289.69;;;39.62;18.83
60583;BME280;46415;47.536;19.066;2022-07-22T13:16:09;100290.38;;;39.47;18.11
60583;BME280;46415;47.536;19.066;2022-07-22T13:19:12;100288.72;;;39.19;19.12
60583;BME280;46415;47.536;19.066;2022-07-22T13:22:14;100282.19;;;39.42;19.30
60583;BME280;46415;47.536;19.066;2022-07-22T13:25:17;100283.28;;;39.46;18.95
60583;BME280;46415;47.536;19.066;2022-07-22T13:28:20;100284.72;;;39.00;19.01
60583;BME280;46415;47.536;19.066;2022-07-22T13:31:23;100279.38;;;38.83;18.93
60583;BME280;46415;47.536;19.066;2022-07-22T13:34:26;100280.84;;;38.91;18.99
60583;BME280;46415;47.536;19.066;2022-07-22T13:37:29;100278.06;;;38.64;19.10
60583;BME280;46415;47.536;19.066;2022-07-22T13:40:32;100274.31;;;38.92;18.42
60583;BME280;46415;47.536;19.066;2022-07-22T13:43:35;100274.75;;;39.05;18.23
60583;BME280;46415;47.536;19.066;2022-07-22T13:46:37;100268.44;;;39.27;18.25
60583;BME280;46415;47.536;19.066;2022-07-22T13:49:41;100270.28;;;39.48;18.24
60583;BME280;46415;47.536;19.066;2022-07-22T13:52:43;100271.53;;;39.67;17.59
60583;BME280;46415;47.536;19.066;2022-07-22T13:55:49;100264.22;;;39.41;17.91
60583;BME280;46415;47.536;19.066;2022-07-22T13:58:51;100261.69;;;39.61;17.61
60583;BME280;46415;47.536;19.066;2022-07-22T14:01:55;100262.78;;;39.65;17.23
60583;BME280;46415;47.536;19.066;2022-07-22T14:04:58;100271.09;;;39.80;17.70
60583;BME280;46415;47.536;19.066;2022-07-22T14:08:00;100263.50;;;39.24;17.38
60583;BME280;46415;47.536;19.066;2022-07-22T14:11:03;100265.97;;;38.98;17.79
60583;BME280;46415;47.536;19.066;2022-07-22T14:14:06;100267.00;;;38.92;18.00
60583;BME280;46415;47.536;19.066;2022-07-22T14:17:10;100254.41;;;39.08;17.82
60583;BME280;46415;47.536;19.066;2022-07-22T14:20:12;100247.59;;;39.69;17.80
60583;BME280;46415;47.536;19.066;2022-07-22T14:23:15;100254.16;;;39.73;17.54
60583;BME280;46415;47.536;19.066;2022-07-22T14:26:22;100246.00;;;39.73;18.12
60583;BME280;46415;47.536;19.066;2022-07-22T14:29:25;100246.78;;;39.69;17.80
60583;BME280;46415;47.536;19.066;2022-07-22T14:32:27;100231.34;;;39.37;18.24
60583;BME280;46415;47.536;19.066;2022-07-22T14:35:30;100242.16;;;39.69;17.75
60583;BME280;46415;47.536;19.066;2022-07-22T14:38:36;100236.16;;;39.62;17.90
60583;BME280;46415;47.536;19.066;2022-07-22T14:41:39;100229.53;;;39.85;18.25
60583;BME280;46415;47.536;19.066;2022-07-22T14:44:42;100229.81;;;40.35;19.14
60583;BME280;46415;47.536;19.066;2022-07-22T14:47:45;100241.56;;;39.99;18.71
60583;BME280;46415;47.536;19.066;2022-07-22T14:50:47;100233.59;;;39.18;18.66
60583;BME280;46415;47.536;19.066;2022-07-22T14:53:50;100235.94;;;39.10;18.42
60583;BME280;46415;47.536;19.066;2022-07-22T14:56:53;100231.88;;;39.39;18.37
60583;BME280;46415;47.536;19.066;2022-07-22T14:59:56;100234.78;;;39.96;17.70
60583;BME280;46415;47.536;19.066;2022-07-22T15:02:58;100219.94;;;40.87;17.33
60583;BME280;46415;47.536;19.066;2022-07-22T15:06:01;100224.09;;;41.50;16.33
60583;BME280;46415;47.536;19.066;2022-07-22T15:09:05;100222.72;;;42.52;15.23
60583;BME280;46415;47.536;19.066;2022-07-22T15:12:08;100222.91;;;44.02;14.81
60583;BME280;46415;47.536;19.066;2022-07-22T15:15:31;100219.25;;;45.42;13.58
60583;BME280;46415;47.536;19.066;2022-07-22T15:18:35;100221.16;;;46.92;12.10
60583;BME280;46415;47.536;19.066;2022-07-22T15:21:38;100217.72;;;47.84;11.74
60583;BME280;46415;47.536;19.066;2022-07-22T15:24:41;100215.00;;;48.76;11.23
60583;BME280;46415;47.536;19.066;2022-07-22T15:27:44;100223.34;;;44.94;13.41
60583;BME280;46415;47.536;19.066;2022-07-22T15:30:47;100223.66;;;42.22;15.30
60583;BME280;46415;47.536;19.066;2022-07-22T15:33:49;100224.75;;;40.07;17.19
60583;BME280;46415;47.536;19.066;2022-07-22T15:36:52;100216.63;;;39.70;17.99
60583;BME280;46415;47.536;19.066;2022-07-22T15:39:55;100214.56;;;42.96;15.75
60583;BME280;46415;47.536;19.066;2022-07-22T15:42:58;100205.94;;;46.09;12.87
60583;BME280;46415;47.536;19.066;2022-07-22T15:46:00;100210.28;;;45.56;13.01
60583;BME280;46415;47.536;19.066;2022-07-22T15:49:04;100202.16;;;43.72;14.39
60583;BME280;46415;47.536;19.066;2022-07-22T15:52:06;100200.06;;;43.64;14.83
60583;BME280;46415;47.536;19.066;2022-07-22T15:55:09;100201.06;;;46.34;12.65
60583;BME280;46415;47.536;19.066;2022-07-22T15:58:12;100202.53;;;47.96;11.59
60583;BME280;46415;47.536;19.066;2022-07-22T16:01:34;100201.28;;;47.40;11.84
60583;BME280;46415;47.536;19.066;2022-07-22T16:04:37;100196.00;;;46.99;12.24
60583;BME280;46415;47.536;19.066;2022-07-22T16:07:39;100194.66;;;46.74;12.12